Terminal Aerodrome Forecast
Issued by NWS North Platte, NE

Home | Current Version | Previous Version | Text Only | Print | Product List | Glossary On
Versions: 1 2 3 4 5 6 7 8 9 10 11 12 13 14 15 16 17 18 19
721
FTUS43 KLBF 191133
TAFLBF
TAF
KLBF 191133Z 1912/2012 VRB03KT 1/4SM FG VV002
     FM191600 VRB03KT 1/2SM FG BKN003
     FM191800 VRB03KT 5SM BR SCT015
     FM192100 18004KT P6SM SKC
     FM200600 24004KT 1/2SM FG BKN003
     FM200900 24005KT 1/4SM FG VV002=

USA.gov is the U.S. government's official web portal to all federal, state and local government web resources and services.